sensor_id;sensor_type;location;lat;lon;timestamp;pressure;altitude;pressure_sealevel;temperature;humidity
74834;BME280;63361;52.384;20.930;2024-01-06T00:01:45;100149.72;;;-3.13;100.00
74834;BME280;63361;52.384;20.930;2024-01-06T00:04:11;100132.81;;;-3.26;100.00
74834;BME280;63361;52.384;20.930;2024-01-06T00:06:36;100152.78;;;-3.10;100.00
74834;BME280;63361;52.384;20.930;2024-01-06T00:09:01;100142.38;;;-3.25;100.00
74834;BME280;63361;52.384;20.930;2024-01-06T00:11:27;100159.28;;;-3.12;100.00
74834;BME280;63361;52.384;20.930;2024-01-06T00:13:52;100154.94;;;-3.27;100.00
74834;BME280;63361;52.384;20.930;2024-01-06T00:16:18;100183.66;;;-3.10;100.00
74834;BME280;63361;52.384;20.930;2024-01-06T00:18:44;100185.09;;;-3.08;100.00
74834;BME280;63361;52.384;20.930;2024-01-06T00:21:10;100177.75;;;-3.12;100.00
74834;BME280;63361;52.384;20.930;2024-01-06T00:23:35;100158.22;;;-3.25;100.00
74834;BME280;63361;52.384;20.930;2024-01-06T00:26:00;100147.81;;;-3.33;100.00
74834;BME280;63361;52.384;20.930;2024-01-06T00:28:26;100158.53;;;-3.34;100.00
74834;BME280;63361;52.384;20.930;2024-01-06T00:30:51;100146.16;;;-3.40;100.00
74834;BME280;63361;52.384;20.930;2024-01-06T00:33:16;100165.25;;;-3.32;100.00
74834;BME280;63361;52.384;20.930;2024-01-06T00:35:42;100156.16;;;-3.29;100.00
74834;BME280;63361;52.384;20.930;2024-01-06T00:38:07;100166.94;;;-3.24;100.00
74834;BME280;63361;52.384;20.930;2024-01-06T00:40:32;100156.53;;;-3.32;100.00
74834;BME280;63361;52.384;20.930;2024-01-06T00:42:58;100164.69;;;-3.27;100.00
74834;BME280;63361;52.384;20.930;2024-01-06T00:45:24;100175.44;;;-3.29;100.00
74834;BME280;63361;52.384;20.930;2024-01-06T00:47:49;100156.34;;;-3.31;100.00
74834;BME280;63361;52.384;20.930;2024-01-06T00:50:15;100142.06;;;-3.43;100.00
74834;BME280;63361;52.384;20.930;2024-01-06T00:52:41;100161.41;;;-3.29;100.00
74834;BME280;63361;52.384;20.930;2024-01-06T00:55:06;100153.56;;;-3.23;100.00
74834;BME280;63361;52.384;20.930;2024-01-06T00:57:32;100148.31;;;-3.09;100.00
74834;BME280;63361;52.384;20.930;2024-01-06T00:59:58;100158.25;;;-3.11;100.00
74834;BME280;63361;52.384;20.930;2024-01-06T01:02:23;100152.78;;;-3.10;100.00
74834;BME280;63361;52.384;20.930;2024-01-06T01:04:48;100131.34;;;-3.35;100.00
74834;BME280;63361;52.384;20.930;2024-01-06T01:07:14;100132.34;;;-3.42;100.00
74834;BME280;63361;52.384;20.930;2024-01-06T01:09:39;100142.38;;;-3.18;100.00
74834;BME280;63361;52.384;20.930;2024-01-06T01:12:04;100154.03;;;-3.06;100.00
74834;BME280;63361;52.384;20.930;2024-01-06T01:14:30;100149.09;;;-3.22;100.00
74834;BME280;63361;52.384;20.930;2024-01-06T01:16:55;100153.78;;;-3.11;100.00
74834;BME280;63361;52.384;20.930;2024-01-06T01:19:20;100132.97;;;-3.34;100.00
74834;BME280;63361;52.384;20.930;2024-01-06T01:21:46;100144.19;;;-3.25;100.00
74834;BME280;63361;52.384;20.930;2024-01-06T01:24:11;100142.53;;;-3.33;100.00
74834;BME280;63361;52.384;20.930;2024-01-06T01:26:36;100149.25;;;-3.30;100.00
74834;BME280;63361;52.384;20.930;2024-01-06T01:29:02;100106.28;;;-3.59;100.00
74834;BME280;63361;52.384;20.930;2024-01-06T01:31:27;100158.16;;;-3.38;100.00
74834;BME280;63361;52.384;20.930;2024-01-06T01:33:52;100132.97;;;-3.34;100.00
74834;BME280;63361;52.384;20.930;2024-01-06T01:36:18;100137.84;;;-3.37;100.00
74834;BME280;63361;52.384;20.930;2024-01-06T01:38:43;100108.28;;;-3.67;100.00
74834;BME280;63361;52.384;20.930;2024-01-06T01:41:09;100147.41;;;-3.36;100.00
74834;BME280;63361;52.384;20.930;2024-01-06T01:43:34;100143.34;;;-3.32;100.00
74834;BME280;63361;52.384;20.930;2024-01-06T01:45:59;100143.13;;;-3.37;100.00
74834;BME280;63361;52.384;20.930;2024-01-06T01:48:25;100115.25;;;-3.46;100.00
74834;BME280;63361;52.384;20.930;2024-01-06T01:50:52;100139.50;;;-3.30;100.00
74834;BME280;63361;52.384;20.930;2024-01-06T01:53:18;100142.38;;;-3.25;100.00
74834;BME280;63361;52.384;20.930;2024-01-06T01:55:43;100149.63;;;-3.33;100.00
74834;BME280;63361;52.384;20.930;2024-01-06T01:58:12;100144.34;;;-3.33;100.00
74834;BME280;63361;52.384;20.930;2024-01-06T02:00:38;100113.09;;;-3.36;100.00
74834;BME280;63361;52.384;20.930;2024-01-06T02:03:04;100155.78;;;-3.20;100.00
74834;BME280;63361;52.384;20.930;2024-01-06T02:05:30;100145.19;;;-3.26;100.00
74834;BME280;63361;52.384;20.930;2024-01-06T02:07:55;100130.50;;;-3.42;100.00
74834;BME280;63361;52.384;20.930;2024-01-06T02:10:21;100143.47;;;-3.06;100.00
74834;BME280;63361;52.384;20.930;2024-01-06T02:12:48;100136.31;;;-3.12;100.00
74834;BME280;63361;52.384;20.930;2024-01-06T02:15:13;100148.75;;;-3.06;100.00
74834;BME280;63361;52.384;20.930;2024-01-06T02:17:38;100083.75;;;-3.61;100.00
74834;BME280;63361;52.384;20.930;2024-01-06T02:20:06;100133.66;;;-3.19;100.00
74834;BME280;63361;52.384;20.930;2024-01-06T02:22:32;100113.53;;;-3.20;100.00
74834;BME280;63361;52.384;20.930;2024-01-06T02:24:58;100112.47;;;-3.38;100.00
74834;BME280;63361;52.384;20.930;2024-01-06T02:27:23;100102.53;;;-3.36;100.00
74834;BME280;63361;52.384;20.930;2024-01-06T02:29:49;100096.84;;;-3.33;100.00
74834;BME280;63361;52.384;20.930;2024-01-06T02:32:14;100111.91;;;-3.21;100.00
74834;BME280;63361;52.384;20.930;2024-01-06T02:34:39;100126.06;;;-3.35;100.00
74834;BME280;63361;52.384;20.930;2024-01-06T02:37:04;100083.94;;;-3.69;100.00
74834;BME280;63361;52.384;20.930;2024-01-06T02:39:30;100112.03;;;-3.42;100.00
74834;BME280;63361;52.384;20.930;2024-01-06T02:41:55;100121.81;;;-3.36;100.00
74834;BME280;63361;52.384;20.930;2024-01-06T02:44:21;100090.38;;;-3.31;100.00
74834;BME280;63361;52.384;20.930;2024-01-06T02:46:46;100078.91;;;-3.51;100.00
74834;BME280;63361;52.384;20.930;2024-01-06T02:49:11;100102.75;;;-3.38;100.00
74834;BME280;63361;52.384;20.930;2024-01-06T02:51:36;100100.91;;;-3.37;100.00
74834;BME280;63361;52.384;20.930;2024-01-06T02:54:02;100115.13;;;-3.38;100.00
74834;BME280;63361;52.384;20.930;2024-01-06T02:56:27;100103.31;;;-3.42;100.00
74834;BME280;63361;52.384;20.930;2024-01-06T02:58:53;100094.97;;;-3.46;100.00
74834;BME280;63361;52.384;20.930;2024-01-06T03:01:18;100111.09;;;-3.28;100.00
74834;BME280;63361;52.384;20.930;2024-01-06T03:03:43;100118.38;;;-3.36;100.00
74834;BME280;63361;52.384;20.930;2024-01-06T03:06:08;100104.75;;;-3.33;100.00
74834;BME280;63361;52.384;20.930;2024-01-06T03:08:34;100106.81;;;-3.29;100.00
74834;BME280;63361;52.384;20.930;2024-01-06T03:11:00;100095.06;;;-3.20;100.00
74834;BME280;63361;52.384;20.930;2024-01-06T03:13:25;100083.47;;;-3.38;100.00
74834;BME280;63361;52.384;20.930;2024-01-06T03:15:50;100082.47;;;-3.31;100.00
74834;BME280;63361;52.384;20.930;2024-01-06T03:18:16;100079.53;;;-3.49;100.00
74834;BME280;63361;52.384;20.930;2024-01-06T03:20:41;100089.13;;;-3.41;100.00
74834;BME280;63361;52.384;20.930;2024-01-06T03:23:06;100086.25;;;-3.46;100.00
74834;BME280;63361;52.384;20.930;2024-01-06T03:25:32;100106.38;;;-3.39;100.00
74834;BME280;63361;52.384;20.930;2024-01-06T03:27:57;100102.50;;;-3.43;100.00
74834;BME280;63361;52.384;20.930;2024-01-06T03:30:22;100115.50;;;-3.35;100.00
74834;BME280;63361;52.384;20.930;2024-01-06T03:32:47;100100.78;;;-3.23;100.00
74834;BME280;63361;52.384;20.930;2024-01-06T03:35:13;100089.53;;;-3.38;100.00
74834;BME280;63361;52.384;20.930;2024-01-06T03:37:39;100104.81;;;-3.27;100.00
74834;BME280;63361;52.384;20.930;2024-01-06T03:40:05;100097.28;;;-3.30;100.00
74834;BME280;63361;52.384;20.930;2024-01-06T03:42:30;100107.88;;;-3.16;100.00
74834;BME280;63361;52.384;20.930;2024-01-06T03:44:56;100096.66;;;-3.38;100.00
74834;BME280;63361;52.384;20.930;2024-01-06T03:47:21;100088.16;;;-3.27;100.00
74834;BME280;63361;52.384;20.930;2024-01-06T03:49:47;100117.41;;;-3.22;100.00
74834;BME280;63361;52.384;20.930;2024-01-06T03:52:12;100119.41;;;-3.31;100.00
74834;BME280;63361;52.384;20.930;2024-01-06T03:54:39;100129.94;;;-3.31;100.00
74834;BME280;63361;52.384;20.930;2024-01-06T03:57:04;100130.94;;;-3.38;100.00
74834;BME280;63361;52.384;20.930;2024-01-06T03:59:29;100119.84;;;-3.21;100.00
74834;BME280;63361;52.384;20.930;2024-01-06T04:01:54;100112.97;;;-3.22;100.00
74834;BME280;63361;52.384;20.930;2024-01-06T04:04:20;100118.25;;;-3.15;100.00
74834;BME280;63361;52.384;20.930;2024-01-06T04:06:45;100101.59;;;-3.22;100.00
74834;BME280;63361;52.384;20.930;2024-01-06T04:09:10;100111.34;;;-3.16;100.00
74834;BME280;63361;52.384;20.930;2024-01-06T04:11:36;100113.97;;;-3.16;100.00
74834;BME280;63361;52.384;20.930;2024-01-06T04:14:01;100117.44;;;-3.15;100.00
74834;BME280;63361;52.384;20.930;2024-01-06T04:16:26;100119.06;;;-3.21;100.00
74834;BME280;63361;52.384;20.930;2024-01-06T04:18:52;100115.78;;;-3.23;100.00
74834;BME280;63361;52.384;20.930;2024-01-06T04:21:18;100098.53;;;-3.26;100.00
74834;BME280;63361;52.384;20.930;2024-01-06T04:23:43;100111.47;;;-3.31;100.00
74834;BME280;63361;52.384;20.930;2024-01-06T04:26:08;100120.44;;;-3.25;100.00
74834;BME280;63361;52.384;20.930;2024-01-06T04:28:34;100109.69;;;-3.24;100.00
74834;BME280;63361;52.384;20.930;2024-01-06T04:30:59;100106.88;;;-3.22;100.00
74834;BME280;63361;52.384;20.930;2024-01-06T04:33:25;100113.97;;;-3.23;100.00
74834;BME280;63361;52.384;20.930;2024-01-06T04:35:50;100133.25;;;-3.15;100.00
74834;BME280;63361;52.384;20.930;2024-01-06T04:38:15;100117.06;;;-3.06;100.00
74834;BME280;63361;52.384;20.930;2024-01-06T04:40:41;100116.84;;;-3.11;100.00
74834;BME280;63361;52.384;20.930;2024-01-06T04:43:06;100113.38;;;-3.11;100.00
74834;BME280;63361;52.384;20.930;2024-01-06T04:45:32;100106.78;;;-3.35;100.00
74834;BME280;63361;52.384;20.930;2024-01-06T04:47:57;100122.66;;;-3.29;100.00
74834;BME280;63361;52.384;20.930;2024-01-06T04:50:23;100124.25;;;-3.34;100.00
74834;BME280;63361;52.384;20.930;2024-01-06T04:52:48;100138.53;;;-3.15;100.00
74834;BME280;63361;52.384;20.930;2024-01-06T04:55:13;100133.63;;;-3.25;100.00
74834;BME280;63361;52.384;20.930;2024-01-06T04:57:38;100131.53;;;-3.43;100.00
74834;BME280;63361;52.384;20.930;2024-01-06T05:00:04;100151.88;;;-3.30;100.00
74834;BME280;63361;52.384;20.930;2024-01-06T05:02:30;100159.16;;;-3.39;100.00
74834;BME280;63361;52.384;20.930;2024-01-06T05:04:55;100148.19;;;-3.36;100.00
74834;BME280;63361;52.384;20.930;2024-01-06T05:07:20;100141.72;;;-3.33;100.00
74834;BME280;63361;52.384;20.930;2024-01-06T05:09:46;100133.22;;;-3.29;100.00
74834;BME280;63361;52.384;20.930;2024-01-06T05:12:12;100143.78;;;-3.29;100.00
74834;BME280;63361;52.384;20.930;2024-01-06T05:14:37;100122.84;;;-3.37;100.00
74834;BME280;63361;52.384;20.930;2024-01-06T05:17:03;100114.88;;;-3.43;100.00
74834;BME280;63361;52.384;20.930;2024-01-06T05:19:28;100146.97;;;-3.33;100.00
74834;BME280;63361;52.384;20.930;2024-01-06T05:21:53;100108.31;;;-3.61;100.00
74834;BME280;63361;52.384;20.930;2024-01-06T05:24:20;100113.00;;;-3.56;100.00
74834;BME280;63361;52.384;20.930;2024-01-06T05:26:45;100120.34;;;-3.51;100.00
74834;BME280;63361;52.384;20.930;2024-01-06T05:29:11;100134.22;;;-3.36;100.00
74834;BME280;63361;52.384;20.930;2024-01-06T05:31:36;100129.47;;;-3.47;100.00
74834;BME280;63361;52.384;20.930;2024-01-06T05:34:01;100120.94;;;-3.49;100.00
74834;BME280;63361;52.384;20.930;2024-01-06T05:36:27;100138.56;;;-3.50;100.00
74834;BME280;63361;52.384;20.930;2024-01-06T05:38:52;100139.25;;;-3.41;100.00
74834;BME280;63361;52.384;20.930;2024-01-06T05:41:17;100132.09;;;-3.54;100.00
74834;BME280;63361;52.384;20.930;2024-01-06T05:43:43;100140.63;;;-3.52;100.00
74834;BME280;63361;52.384;20.930;2024-01-06T05:46:08;100142.22;;;-3.51;100.00
74834;BME280;63361;52.384;20.930;2024-01-06T05:48:36;100161.91;;;-3.53;100.00
74834;BME280;63361;52.384;20.930;2024-01-06T05:51:01;100134.03;;;-3.69;100.00
74834;BME280;63361;52.384;20.930;2024-01-06T05:53:26;100146.41;;;-3.63;100.00
74834;BME280;63361;52.384;20.930;2024-01-06T05:55:52;100173.09;;;-3.51;100.00
74834;BME280;63361;52.384;20.930;2024-01-06T05:58:17;100166.25;;;-3.39;100.00
74834;BME280;63361;52.384;20.930;2024-01-06T06:00:42;100180.66;;;-3.42;100.00
74834;BME280;63361;52.384;20.930;2024-01-06T06:03:08;100163.13;;;-3.56;100.00
74834;BME280;63361;52.384;20.930;2024-01-06T06:05:33;100166.38;;;-3.54;100.00
74834;BME280;63361;52.384;20.930;2024-01-06T06:07:58;100179.16;;;-3.51;100.00
74834;BME280;63361;52.384;20.930;2024-01-06T06:10:23;100176.06;;;-3.61;100.00
74834;BME280;63361;52.384;20.930;2024-01-06T06:12:55;100184.66;;;-3.46;100.00
74834;BME280;63361;52.384;20.930;2024-01-06T06:15:20;100200.13;;;-3.43;100.00
74834;BME280;63361;52.384;20.930;2024-01-06T06:17:45;100184.97;;;-3.62;100.00
74834;BME280;63361;52.384;20.930;2024-01-06T06:20:11;100188.13;;;-3.45;100.00
74834;BME280;63361;52.384;20.930;2024-01-06T06:22:36;100198.66;;;-3.52;100.00
74834;BME280;63361;52.384;20.930;2024-01-06T06:25:02;100184.84;;;-3.54;100.00
74834;BME280;63361;52.384;20.930;2024-01-06T06:27:28;100189.94;;;-3.46;100.00
74834;BME280;63361;52.384;20.930;2024-01-06T06:29:54;100176.09;;;-3.55;100.00
74834;BME280;63361;52.384;20.930;2024-01-06T06:32:21;100176.50;;;-3.51;100.00
74834;BME280;63361;52.384;20.930;2024-01-06T06:34:46;100179.13;;;-3.58;100.00
74834;BME280;63361;52.384;20.930;2024-01-06T06:37:12;100192.13;;;-3.56;100.00
74834;BME280;63361;52.384;20.930;2024-01-06T06:39:37;100212.41;;;-3.57;100.00
74834;BME280;63361;52.384;20.930;2024-01-06T06:42:03;100207.41;;;-3.45;100.00
74834;BME280;63361;52.384;20.930;2024-01-06T06:44:28;100230.78;;;-3.42;100.00
74834;BME280;63361;52.384;20.930;2024-01-06T06:46:55;100217.56;;;-3.42;100.00
74834;BME280;63361;52.384;20.930;2024-01-06T06:49:20;100223.44;;;-3.46;100.00
74834;BME280;63361;52.384;20.930;2024-01-06T06:51:45;100216.09;;;-3.51;100.00
74834;BME280;63361;52.384;20.930;2024-01-06T06:54:14;100222.34;;;-3.59;100.00
74834;BME280;63361;52.384;20.930;2024-01-06T06:56:40;100217.69;;;-3.57;100.00
74834;BME280;63361;52.384;20.930;2024-01-06T06:59:06;100236.44;;;-3.45;100.00
74834;BME280;63361;52.384;20.930;2024-01-06T07:01:31;100239.03;;;-3.51;100.00
74834;BME280;63361;52.384;20.930;2024-01-06T07:03:56;100228.56;;;-3.38;100.00
74834;BME280;63361;52.384;20.930;2024-01-06T07:06:22;100225.88;;;-3.45;100.00
74834;BME280;63361;52.384;20.930;2024-01-06T07:08:47;100226.03;;;-3.53;100.00
74834;BME280;63361;52.384;20.930;2024-01-06T07:11:13;100209.41;;;-3.47;100.00
74834;BME280;63361;52.384;20.930;2024-01-06T07:13:40;100206.16;;;-3.49;100.00
74834;BME280;63361;52.384;20.930;2024-01-06T07:16:06;100223.09;;;-3.37;100.00
74834;BME280;63361;52.384;20.930;2024-01-06T07:18:32;100207.56;;;-3.53;100.00
74834;BME280;63361;52.384;20.930;2024-01-06T07:20:58;100219.59;;;-3.44;100.00
74834;BME280;63361;52.384;20.930;2024-01-06T07:23:23;100205.59;;;-3.44;100.00
74834;BME280;63361;52.384;20.930;2024-01-06T07:25:48;100219.78;;;-3.45;100.00
74834;BME280;63361;52.384;20.930;2024-01-06T07:28:14;100208.69;;;-3.34;100.00
74834;BME280;63361;52.384;20.930;2024-01-06T07:30:39;100210.03;;;-3.45;100.00
74834;BME280;63361;52.384;20.930;2024-01-06T07:33:04;100221.28;;;-3.36;100.00
74834;BME280;63361;52.384;20.930;2024-01-06T07:35:30;100221.69;;;-3.33;100.00
74834;BME280;63361;52.384;20.930;2024-01-06T07:37:55;100236.66;;;-3.40;100.00
74834;BME280;63361;52.384;20.930;2024-01-06T07:40:20;100239.03;;;-3.17;100.00
74834;BME280;63361;52.384;20.930;2024-01-06T07:42:48;100234.88;;;-3.33;100.00
74834;BME280;63361;52.384;20.930;2024-01-06T07:45:13;100253.66;;;-3.21;100.00
74834;BME280;63361;52.384;20.930;2024-01-06T07:47:38;100235.06;;;-3.34;100.00
74834;BME280;63361;52.384;20.930;2024-01-06T07:50:05;100241.69;;;-3.45;100.00
74834;BME280;63361;52.384;20.930;2024-01-06T07:52:30;100243.16;;;-3.42;100.00
74834;BME280;63361;52.384;20.930;2024-01-06T07:54:55;100268.50;;;-3.13;100.00
74834;BME280;63361;52.384;20.930;2024-01-06T07:57:21;100274.16;;;-3.16;100.00
74834;BME280;63361;52.384;20.930;2024-01-06T07:59:46;100250.13;;;-3.28;100.00
74834;BME280;63361;52.384;20.930;2024-01-06T08:02:11;100283.56;;;-3.07;100.00
74834;BME280;63361;52.384;20.930;2024-01-06T08:04:36;100269.06;;;-3.18;100.00
74834;BME280;63361;52.384;20.930;2024-01-06T08:07:02;100259.50;;;-3.26;100.00
74834;BME280;63361;52.384;20.930;2024-01-06T08:09:27;100267.44;;;-3.19;100.00
74834;BME280;63361;52.384;20.930;2024-01-06T08:11:53;100266.63;;;-3.20;100.00
74834;BME280;63361;52.384;20.930;2024-01-06T08:14:18;100274.66;;;-3.06;100.00
74834;BME280;63361;52.384;20.930;2024-01-06T08:16:44;100276.41;;;-3.13;100.00
74834;BME280;63361;52.384;20.930;2024-01-06T08:19:09;100281.13;;;-3.09;100.00
74834;BME280;63361;52.384;20.930;2024-01-06T08:21:35;100284.34;;;-3.13;100.00
74834;BME280;63361;52.384;20.930;2024-01-06T08:24:00;100274.03;;;-3.08;100.00
74834;BME280;63361;52.384;20.930;2024-01-06T08:26:26;100264.09;;;-3.00;100.00
74834;BME280;63361;52.384;20.930;2024-01-06T08:28:51;100288.53;;;-2.91;100.00
74834;BME280;63361;52.384;20.930;2024-01-06T08:31:17;100284.66;;;-2.89;100.00
74834;BME280;63361;52.384;20.930;2024-01-06T08:33:43;100295.09;;;-2.74;100.00
74834;BME280;63361;52.384;20.930;2024-01-06T08:36:08;100275.78;;;-2.81;100.00
74834;BME280;63361;52.384;20.930;2024-01-06T08:38:34;100284.53;;;-2.80;100.00
74834;BME280;63361;52.384;20.930;2024-01-06T08:41:00;100307.16;;;-2.58;100.00
74834;BME280;63361;52.384;20.930;2024-01-06T08:43:25;100305.72;;;-2.67;100.00
74834;BME280;63361;52.384;20.930;2024-01-06T08:45:50;100298.22;;;-2.64;100.00
74834;BME280;63361;52.384;20.930;2024-01-06T08:48:16;100295.38;;;-2.62;100.00
74834;BME280;63361;52.384;20.930;2024-01-06T08:50:43;100310.03;;;-2.53;100.00
74834;BME280;63361;52.384;20.930;2024-01-06T08:53:10;100320.22;;;-2.50;100.00
74834;BME280;63361;52.384;20.930;2024-01-06T08:55:36;100317.97;;;-2.60;100.00
74834;BME280;63361;52.384;20.930;2024-01-06T08:58:01;100315.53;;;-2.55;100.00
74834;BME280;63361;52.384;20.930;2024-01-06T09:00:26;100255.59;;;-2.95;100.00
74834;BME280;63361;52.384;20.930;2024-01-06T09:02:51;100292.06;;;-2.77;100.00
74834;BME280;63361;52.384;20.930;2024-01-06T09:05:17;100308.34;;;-2.67;100.00
74834;BME280;63361;52.384;20.930;2024-01-06T09:07:42;100301.69;;;-2.63;100.00
74834;BME280;63361;52.384;20.930;2024-01-06T09:10:08;100322.00;;;-2.57;100.00
74834;BME280;63361;52.384;20.930;2024-01-06T09:12:35;100306.53;;;-2.67;100.00
74834;BME280;63361;52.384;20.930;2024-01-06T09:15:00;100316.28;;;-2.67;100.00
74834;BME280;63361;52.384;20.930;2024-01-06T09:17:25;100320.28;;;-2.78;100.00
74834;BME280;63361;52.384;20.930;2024-01-06T09:19:50;100321.03;;;-2.91;100.00
74834;BME280;63361;52.384;20.930;2024-01-06T09:22:19;100334.31;;;-2.77;100.00
74834;BME280;63361;52.384;20.930;2024-01-06T09:24:44;100315.41;;;-2.81;100.00
74834;BME280;63361;52.384;20.930;2024-01-06T09:27:09;100320.50;;;-2.79;100.00
74834;BME280;63361;52.384;20.930;2024-01-06T09:29:34;100318.53;;;-2.58;100.00
74834;BME280;63361;52.384;20.930;2024-01-06T09:32:00;100304.31;;;-2.57;100.00
74834;BME280;63361;52.384;20.930;2024-01-06T09:34:25;100289.66;;;-2.66;100.00
74834;BME280;63361;52.384;20.930;2024-01-06T09:36:50;100286.84;;;-2.64;100.00
74834;BME280;63361;52.384;20.930;2024-01-06T09:39:16;100310.31;;;-2.35;100.00
74834;BME280;63361;52.384;20.930;2024-01-06T09:41:41;100310.75;;;-2.31;100.00
74834;BME280;63361;52.384;20.930;2024-01-06T09:44:07;100327.44;;;-2.24;100.00
74834;BME280;63361;52.384;20.930;2024-01-06T09:46:32;100312.97;;;-2.28;100.00
74834;BME280;63361;52.384;20.930;2024-01-06T09:48:58;100324.63;;;-2.16;100.00
74834;BME280;63361;52.384;20.930;2024-01-06T09:51:24;100327.66;;;-2.19;100.00
74834;BME280;63361;52.384;20.930;2024-01-06T09:54:01;100333.88;;;-2.40;100.00
74834;BME280;63361;52.384;20.930;2024-01-06T09:56:29;100332.06;;;-2.39;100.00
74834;BME280;63361;52.384;20.930;2024-01-06T09:58:55;100335.00;;;-2.15;100.00
74834;BME280;63361;52.384;20.930;2024-01-06T10:01:21;100326.69;;;-2.05;100.00
74834;BME280;63361;52.384;20.930;2024-01-06T10:03:47;100326.44;;;-2.17;100.00
74834;BME280;63361;52.384;20.930;2024-01-06T10:06:16;100324.63;;;-2.09;100.00
74834;BME280;63361;52.384;20.930;2024-01-06T10:08:48;100339.72;;;-1.97;100.00
74834;BME280;63361;52.384;20.930;2024-01-06T10:11:13;100333.56;;;-2.10;100.00
74834;BME280;63361;52.384;20.930;2024-01-06T10:13:39;100332.75;;;-2.18;100.00
74834;BME280;63361;52.384;20.930;2024-01-06T10:16:05;100336.25;;;-2.04;100.00
74834;BME280;63361;52.384;20.930;2024-01-06T10:18:31;100332.94;;;-2.13;100.00
74834;BME280;63361;52.384;20.930;2024-01-06T10:20:57;100322.41;;;-2.06;100.00
74834;BME280;63361;52.384;20.930;2024-01-06T10:23:23;100324.03;;;-1.98;100.00
74834;BME280;63361;52.384;20.930;2024-01-06T10:25:53;100326.91;;;-1.93;100.00
74834;BME280;63361;52.384;20.930;2024-01-06T10:28:21;100320.97;;;-2.08;100.00
74834;BME280;63361;52.384;20.930;2024-01-06T10:30:47;100307.59;;;-2.00;100.00
74834;BME280;63361;52.384;20.930;2024-01-06T10:33:13;100321.63;;;-2.00;100.00
74834;BME280;63361;52.384;20.930;2024-01-06T10:35:39;100329.13;;;-1.97;100.00
74834;BME280;63361;52.384;20.930;2024-01-06T10:38:04;100317.09;;;-2.13;100.00
74834;BME280;63361;52.384;20.930;2024-01-06T10:40:31;100339.75;;;-1.90;100.00
74834;BME280;63361;52.384;20.930;2024-01-06T10:42:57;100308.09;;;-2.31;100.00
74834;BME280;63361;52.384;20.930;2024-01-06T10:45:23;100327.22;;;-2.23;100.00
74834;BME280;63361;52.384;20.930;2024-01-06T10:47:49;100321.97;;;-2.09;100.00
74834;BME280;63361;52.384;20.930;2024-01-06T10:50:17;100334.94;;;-2.34;100.00
74834;BME280;63361;52.384;20.930;2024-01-06T10:52:43;100321.28;;;-2.38;100.00
74834;BME280;63361;52.384;20.930;2024-01-06T10:55:09;100340.38;;;-2.42;100.00
74834;BME280;63361;52.384;20.930;2024-01-06T10:57:37;100318.63;;;-2.44;100.00
74834;BME280;63361;52.384;20.930;2024-01-06T11:00:03;100334.69;;;-2.39;100.00
74834;BME280;63361;52.384;20.930;2024-01-06T11:02:31;100340.59;;;-2.37;100.00
74834;BME280;63361;52.384;20.930;2024-01-06T11:04:56;100319.22;;;-2.49;100.00
74834;BME280;63361;52.384;20.930;2024-01-06T11:07:23;100319.38;;;-2.57;100.00
74834;BME280;63361;52.384;20.930;2024-01-06T11:09:57;100330.66;;;-2.35;100.00
74834;BME280;63361;52.384;20.930;2024-01-06T11:12:27;100344.34;;;-2.12;100.00
74834;BME280;63361;52.384;20.930;2024-01-06T11:14:53;100338.88;;;-2.04;100.00
74834;BME280;63361;52.384;20.930;2024-01-06T11:17:53;100334.66;;;-1.79;100.00
74834;BME280;63361;52.384;20.930;2024-01-06T11:20:19;100345.44;;;-1.80;100.00
74834;BME280;63361;52.384;20.930;2024-01-06T11:22:46;100319.78;;;-1.93;100.00
74834;BME280;63361;52.384;20.930;2024-01-06T11:25:14;100340.72;;;-1.98;100.00
74834;BME280;63361;52.384;20.930;2024-01-06T11:27:41;100346.03;;;-1.91;100.00
74834;BME280;63361;52.384;20.930;2024-01-06T11:30:07;100347.06;;;-1.92;100.00
74834;BME280;63361;52.384;20.930;2024-01-06T11:32:38;100341.81;;;-1.72;100.00
74834;BME280;63361;52.384;20.930;2024-01-06T11:35:09;100334.28;;;-1.69;100.00
74834;BME280;63361;52.384;20.930;2024-01-06T11:37:36;100338.09;;;-1.91;100.00
74834;BME280;63361;52.384;20.930;2024-01-06T11:42:35;100331.22;;;-1.86;100.00
74834;BME280;63361;52.384;20.930;2024-01-06T11:45:05;100324.25;;;-2.06;100.00
74834;BME280;63361;52.384;20.930;2024-01-06T11:47:34;100338.72;;;-1.83;100.00
74834;BME280;63361;52.384;20.930;2024-01-06T11:50:01;100337.53;;;-1.67;100.00
74834;BME280;63361;52.384;20.930;2024-01-06T11:52:32;100335.94;;;-1.48;100.00
74834;BME280;63361;52.384;20.930;2024-01-06T11:54:59;100334.50;;;-1.70;100.00
74834;BME280;63361;52.384;20.930;2024-01-06T11:57:26;100345.22;;;-1.92;100.00
74834;BME280;63361;52.384;20.930;2024-01-06T11:59:52;100321.00;;;-1.95;100.00
74834;BME280;63361;52.384;20.930;2024-01-06T12:02:18;100332.22;;;-1.80;100.00
74834;BME280;63361;52.384;20.930;2024-01-06T12:04:48;100326.94;;;-1.80;100.00
74834;BME280;63361;52.384;20.930;2024-01-06T12:07:15;100333.09;;;-1.53;100.00
74834;BME280;63361;52.384;20.930;2024-01-06T12:09:40;100328.81;;;-1.54;100.00
74834;BME280;63361;52.384;20.930;2024-01-06T12:12:06;100333.91;;;-1.26;100.00
74834;BME280;63361;52.384;20.930;2024-01-06T12:14:32;100322.47;;;-1.14;100.00
74834;BME280;63361;52.384;20.930;2024-01-06T12:16:58;100315.13;;;-0.98;100.00
74834;BME280;63361;52.384;20.930;2024-01-06T12:19:31;100340.19;;;-0.94;100.00
74834;BME280;63361;52.384;20.930;2024-01-06T12:21:56;100334.69;;;-0.93;100.00
74834;BME280;63361;52.384;20.930;2024-01-06T12:24:22;100327.56;;;-0.92;100.00
74834;BME280;63361;52.384;20.930;2024-01-06T12:26:47;100322.84;;;-0.90;100.00